MHK weather

Manhattan Regional Airport
Manhattan, Kansas, United States

Public forecast

Using degrees Fahrenheit for public forecast. Weather courtesy of forecast.io.

Current aviation weather report (METAR) for Manhattan Regional Airport

Retrieved 2020/02/23 15:52 UTC (23 minutes ago):

KMHK 231552Z 21004KT 10SM CLR 09/04 A2998 RMK AO2 SLP156 T00940039

Aviation forecast (TAF) for Manhattan Regional Airport

Retrieved 2020/02/23 12:22 UTC (4 hours ago):

TAF KMHK 231120Z 2312/2412 18004KT P6SM BKN250 FM232000 12006KT P6SM SCT030 OVC100 FM240400 06007KT 5SM -RA OVC024 FM240700 03011KT 3SM RA OVC012